Time;durP1;ratioP1;P1;durP2;ratioP2;P2;SDS_P1;SDS_P2;PMS_P1;PMS_P2;Temp;Humidity;BMP_temperature;BMP_pressure;BME280_temperature;BME280_humidity;BME280_pressure;Samples;Min_cycle;Max_cycle;Signal;HPM_P1;HPM_P2
2021/06/29 00:00:42;;;;;;;13.17;5.83;;;12.80;99.90;;;;;;5075372;28;20669;-70
2021/06/29 00:03:10;;;;;;;11.90;6.10;;;12.90;99.90;;;;;;5075821;28;20172;-69
2021/06/29 00:05:40;;;;;;;20.90;5.93;;;13.10;99.90;;;;;;5075533;28;20644;-70
2021/06/29 00:08:07;;;;;;;14.93;6.57;;;13.20;99.90;;;;;;5067263;28;20210;-71
2021/06/29 00:10:36;;;;;;;12.30;4.87;;;13.20;99.90;;;;;;5068544;28;20198;-67
2021/06/29 00:13:05;;;;;;;13.00;6.47;;;13.20;99.90;;;;;;5055828;28;20182;-69
2021/06/29 00:15:33;;;;;;;15.07;6.43;;;13.20;99.90;;;;;;5055444;28;20237;-70
2021/06/29 00:18:00;;;;;;;14.37;6.13;;;13.10;99.90;;;;;;5075501;28;20195;-71
2021/06/29 00:20:28;;;;;;;14.30;6.23;;;13.00;99.90;;;;;;5075103;28;20171;-71
2021/06/29 00:22:55;;;;;;;12.33;6.07;;;12.90;99.90;;;;;;5075823;28;20653;-71
2021/06/29 00:25:23;;;;;;;8.43;5.53;;;12.90;99.90;;;;;;5075444;28;20235;-71
2021/06/29 00:27:51;;;;;;;14.00;6.13;;;12.90;99.90;;;;;;5074085;28;20721;-72
2021/06/29 00:30:18;;;;;;;15.63;6.07;;;12.90;99.90;;;;;;5073168;28;20225;-72
2021/06/29 00:32:46;;;;;;;19.07;7.30;;;12.90;99.90;;;;;;5073463;28;20259;-72
2021/06/29 00:35:14;;;;;;;13.40;7.60;;;12.90;99.90;;;;;;5074895;28;20190;-71
2021/06/29 00:37:44;;;;;;;12.70;6.70;;;12.90;99.90;;;;;;5071788;28;20788;-72
2021/06/29 00:40:13;;;;;;;14.43;7.53;;;12.80;99.90;;;;;;5063966;28;20275;-73
2021/06/29 00:42:44;;;;;;;18.73;8.73;;;12.80;99.90;;;;;;5067408;28;20190;-77
2021/06/29 00:45:14;;;;;;;17.53;8.17;;;12.80;99.90;;;;;;5070888;28;20214;-76
2021/06/29 00:47:41;;;;;;;17.13;8.03;;;12.80;99.90;;;;;;5075812;28;20561;-76
2021/06/29 00:50:10;;;;;;;16.97;7.80;;;12.80;99.90;;;;;;5070090;28;20191;-74
2021/06/29 00:52:40;;;;;;;17.67;7.30;;;12.80;99.90;;;;;;5074378;28;20179;-76
2021/06/29 00:55:10;;;;;;;22.10;9.10;;;12.70;99.90;;;;;;5075053;28;20219;-72
2021/06/29 00:57:39;;;;;;;12.23;7.13;;;12.70;99.90;;;;;;5074726;28;20183;-72
2021/06/29 01:00:08;;;;;;;15.33;7.47;;;12.60;99.90;;;;;;5068424;28;20300;-72
2021/06/29 01:02:36;;;;;;;18.57;8.00;;;12.70;99.90;;;;;;5072128;28;20211;-73
2021/06/29 01:05:05;;;;;;;23.30;7.87;;;12.70;99.90;;;;;;5072742;28;20214;-72
2021/06/29 01:07:33;;;;;;;16.67;7.83;;;12.80;99.90;;;;;;5065956;28;20629;-75
2021/06/29 01:10:03;;;;;;;18.30;7.87;;;12.80;99.90;;;;;;5073237;28;20654;-72
2021/06/29 01:12:30;;;;;;;16.07;8.60;;;12.80;99.90;;;;;;5060644;28;20179;-71
2021/06/29 01:14:58;;;;;;;14.93;8.20;;;12.80;99.90;;;;;;5071052;28;20191;-72
2021/06/29 01:17:25;;;;;;;16.57;8.40;;;12.90;99.90;;;;;;5074194;28;20689;-75
2021/06/29 01:19:53;;;;;;;14.07;8.43;;;13.00;99.90;;;;;;5074877;28;20191;-72
2021/06/29 01:22:23;;;;;;;14.83;8.97;;;13.00;99.90;;;;;;5071398;28;20558;-76
2021/06/29 01:24:57;;;;;;;20.77;9.07;;;12.90;99.90;;;;;;5073183;28;20273;-72
2021/06/29 01:32:27;;;;;;;13.43;6.47;;;13.20;99.90;;;;;;5072322;28;20210;-71
2021/06/29 01:34:54;;;;;;;15.40;6.17;;;13.20;99.90;;;;;;5073156;28;20217;-71
2021/06/29 01:37:23;;;;;;;13.20;5.97;;;13.20;99.90;;;;;;5074393;28;20178;-70
2021/06/29 01:40:19;;;;;;;17.77;7.27;;;13.20;99.90;;;;;;5073855;28;20187;-72
2021/06/29 01:42:58;;;;;;;12.10;6.10;;;13.30;99.90;;;;;;5073891;28;20538;-70
2021/06/29 01:45:28;;;;;;;16.57;7.23;;;13.40;99.90;;;;;;5072101;28;20584;-73
2021/06/29 01:47:57;;;;;;;15.07;6.87;;;13.40;99.90;;;;;;5100745;28;20183;-73
2021/06/29 01:50:25;;;;;;;18.10;8.87;;;13.60;99.90;;;;;;5071023;28;20275;-71
2021/06/29 01:53:00;;;;;;;13.63;7.00;;;13.70;99.90;;;;;;5073492;28;20187;-70
2021/06/29 01:55:28;;;;;;;14.47;6.93;;;13.80;99.90;;;;;;5073003;28;20183;-69
2021/06/29 01:57:58;;;;;;;12.90;6.80;;;13.80;99.90;;;;;;5073928;28;20194;-70
2021/06/29 02:00:26;;;;;;;13.83;7.27;;;14.10;99.90;;;;;;5068904;28;20222;-71
2021/06/29 02:02:53;;;;;;;15.63;6.33;;;14.50;99.90;;;;;;5072980;28;20302;-74
2021/06/29 02:05:21;;;;;;;13.47;6.00;;;14.80;99.90;;;;;;5071742;28;20210;-70
2021/06/29 02:07:48;;;;;;;17.83;6.63;;;15.00;99.90;;;;;;5068450;28;20195;-69
2021/06/29 02:10:16;;;;;;;11.67;6.73;;;15.50;99.90;;;;;;5070690;28;20268;-72
2021/06/29 02:12:47;;;;;;;13.87;6.17;;;15.50;99.90;;;;;;5069617;28;20185;-70
2021/06/29 02:15:14;;;;;;;15.03;6.00;;;15.60;99.90;;;;;;5072115;28;20254;-69
2021/06/29 02:17:42;;;;;;;9.80;4.60;;;16.00;99.90;;;;;;5066714;28;20182;-71
2021/06/29 02:20:11;;;;;;;9.60;4.70;;;16.20;99.90;;;;;;5070382;28;20181;-69
2021/06/29 02:22:38;;;;;;;8.67;4.23;;;16.20;99.90;;;;;;5071095;28;20190;-70
2021/06/29 02:25:07;;;;;;;10.63;4.40;;;16.70;99.90;;;;;;5064687;28;20225;-69
2021/06/29 02:27:34;;;;;;;12.20;4.10;;;16.60;99.90;;;;;;5070663;28;20179;-69
2021/06/29 02:30:02;;;;;;;7.10;3.87;;;16.30;99.90;;;;;;5070550;28;20219;-69
2021/06/29 02:32:30;;;;;;;7.33;4.13;;;16.40;99.90;;;;;;5064325;28;20212;-69
2021/06/29 02:34:57;;;;;;;6.13;3.47;;;16.40;99.90;;;;;;5071536;28;20231;-70
2021/06/29 02:37:25;;;;;;;10.47;4.03;;;16.30;99.90;;;;;;5070766;28;20189;-68
2021/06/29 02:39:53;;;;;;;8.17;3.70;;;16.70;99.90;;;;;;5071055;28;20197;-69
2021/06/29 02:42:21;;;;;;;7.87;3.07;;;16.80;99.90;;;;;;5066113;28;20191;-69
2021/06/29 02:44:48;;;;;;;7.63;3.23;;;16.70;99.90;;;;;;5069757;28;20214;-69
2021/06/29 02:47:16;;;;;;;13.87;4.33;;;16.80;99.90;;;;;;5070562;28;20175;-68
2021/06/29 02:49:44;;;;;;;6.57;3.43;;;17.00;99.90;;;;;;5071466;28;20217;-68
2021/06/29 02:52:11;;;;;;;8.60;3.63;;;16.80;99.90;;;;;;5071204;28;20182;-69
2021/06/29 02:54:38;;;;;;;8.13;3.17;;;17.00;99.90;;;;;;5071149;28;20175;-71
2021/06/29 02:57:06;;;;;;;6.67;2.80;;;17.20;99.90;;;;;;5071182;28;20252;-69
2021/06/29 02:59:34;;;;;;;5.23;2.73;;;17.50;99.90;;;;;;5071032;28;20724;-69
2021/06/29 03:02:01;;;;;;;7.77;3.37;;;17.50;99.90;;;;;;5066065;28;20189;-70
2021/06/29 03:04:28;;;;;;;8.20;2.90;;;17.20;99.90;;;;;;5068512;28;20206;-70
2021/06/29 03:06:56;;;;;;;7.33;2.80;;;17.00;99.90;;;;;;5069346;28;20235;-73
2021/06/29 03:09:23;;;;;;;4.67;2.20;;;16.90;99.90;;;;;;5068732;28;20180;-73
2021/06/29 03:11:50;;;;;;;5.57;2.53;;;16.60;99.90;;;;;;5069216;28;20240;-71
2021/06/29 03:14:18;;;;;;;7.70;2.63;;;16.40;99.90;;;;;;5070125;28;20186;-74
2021/06/29 03:16:45;;;;;;;9.13;3.00;;;16.20;99.90;;;;;;5069573;28;20209;-69
2021/06/29 03:19:12;;;;;;;6.17;2.40;;;16.20;99.90;;;;;;5069819;28;20540;-71
2021/06/29 03:21:40;;;;;;;4.90;1.90;;;16.30;99.90;;;;;;5069908;28;20269;-68
2021/06/29 03:24:08;;;;;;;5.27;2.20;;;16.40;99.90;;;;;;5068704;28;20217;-73
2021/06/29 03:26:36;;;;;;;4.40;2.13;;;16.50;99.90;;;;;;5067415;28;20181;-71
2021/06/29 03:29:04;;;;;;;4.87;2.40;;;16.60;99.90;;;;;;5069429;28;20183;-73
2021/06/29 03:31:32;;;;;;;3.57;2.00;;;16.80;99.90;;;;;;5064545;28;20177;-77
2021/06/29 03:34:00;;;;;;;6.23;2.37;;;17.40;99.90;;;;;;5070493;28;20187;-74
2021/06/29 03:36:29;;;;;;;5.17;2.50;;;17.70;99.90;;;;;;5072606;28;20179;-70
2021/06/29 03:38:57;;;;;;;5.43;3.00;;;17.70;99.90;;;;;;5074477;28;20198;-71
2021/06/29 03:41:24;;;;;;;7.40;2.57;;;17.60;99.90;;;;;;5073323;28;20236;-69
2021/06/29 03:43:52;;;;;;;8.67;2.57;;;17.20;99.90;;;;;;5075268;28;20591;-71
2021/06/29 03:46:20;;;;;;;4.37;2.40;;;16.70;99.90;;;;;;5074008;28;20189;-70
2021/06/29 03:48:47;;;;;;;5.93;2.37;;;16.50;99.90;;;;;;5073137;28;20551;-70
2021/06/29 03:51:15;;;;;;;6.37;2.27;;;16.40;99.90;;;;;;5071360;28;20189;-70
2021/06/29 03:53:43;;;;;;;7.30;2.80;;;16.10;99.90;;;;;;5074425;28;20641;-69
2021/06/29 03:56:32;;;;;;;6.57;2.90;;;16.10;99.90;;;;;;5075358;28;20312;-69
2021/06/29 03:59:08;;;;;;;5.67;2.23;;;16.10;99.90;;;;;;5073467;28;20701;-73
2021/06/29 04:01:37;;;;;;;8.33;2.43;;;16.00;99.90;;;;;;5070868;28;20199;-70
2021/06/29 04:04:05;;;;;;;3.30;1.83;;;15.90;99.90;;;;;;5074304;28;20232;-71
2021/06/29 04:06:35;;;;;;;7.10;2.20;;;15.90;99.90;;;;;;5072173;28;20279;-69
2021/06/29 04:09:06;;;;;;;5.60;2.83;;;15.80;99.90;;;;;;5074074;28;20183;-70
2021/06/29 04:11:33;;;;;;;7.60;2.10;;;15.80;99.90;;;;;;5073932;28;20195;-76
2021/06/29 04:14:01;;;;;;;6.10;2.03;;;15.70;99.90;;;;;;5073514;28;20197;-71
2021/06/29 04:16:28;;;;;;;4.87;1.90;;;15.70;99.90;;;;;;5073535;28;20260;-69
2021/06/29 04:18:56;;;;;;;6.07;2.33;;;15.80;99.90;;;;;;5071856;28;20276;-70
2021/06/29 04:21:23;;;;;;;6.70;2.07;;;15.70;99.90;;;;;;5072485;28;20713;-69
2021/06/29 04:23:51;;;;;;;3.70;2.50;;;15.60;99.90;;;;;;5074043;28;20183;-69
2021/06/29 04:26:18;;;;;;;3.37;2.00;;;15.60;99.90;;;;;;5070188;28;20250;-69
2021/06/29 04:28:46;;;;;;;5.80;3.13;;;15.60;99.90;;;;;;5071959;28;20645;-69
2021/06/29 04:31:16;;;;;;;6.30;2.50;;;15.60;99.90;;;;;;5072662;28;20177;-69
2021/06/29 04:33:44;;;;;;;6.27;2.63;;;15.60;99.90;;;;;;5073094;28;20606;-68
2021/06/29 04:36:12;;;;;;;5.77;2.80;;;15.70;99.90;;;;;;5072907;28;20185;-72
2021/06/29 04:38:40;;;;;;;6.07;2.83;;;15.70;99.90;;;;;;5073481;28;20182;-70
2021/06/29 04:41:07;;;;;;;11.03;3.27;;;15.70;99.90;;;;;;5073166;28;20723;-69
2021/06/29 04:43:37;;;;;;;9.83;3.17;;;15.80;99.90;;;;;;5073791;28;20252;-69
2021/06/29 04:46:05;;;;;;;7.00;2.40;;;15.90;99.90;;;;;;5071850;28;20198;-69
2021/06/29 04:48:35;;;;;;;7.23;2.50;;;15.90;99.90;;;;;;5068637;28;20213;-71
2021/06/29 04:51:03;;;;;;;7.23;2.97;;;15.90;99.90;;;;;;5073652;28;20191;-70
2021/06/29 04:53:30;;;;;;;7.87;2.73;;;16.00;99.90;;;;;;5074057;28;20177;-70
2021/06/29 04:55:58;;;;;;;9.37;2.90;;;16.00;99.90;;;;;;5075021;28;20543;-71
2021/06/29 04:58:25;;;;;;;8.03;3.77;;;15.90;99.90;;;;;;5074416;28;20182;-71
2021/06/29 05:00:53;;;;;;;10.83;5.23;;;15.80;99.90;;;;;;5075141;28;20243;-69
2021/06/29 05:03:21;;;;;;;9.23;5.07;;;15.70;99.90;;;;;;5074411;28;20194;-70
2021/06/29 05:05:49;;;;;;;13.90;5.10;;;15.60;99.90;;;;;;5074426;28;20224;-73
2021/06/29 05:08:17;;;;;;;12.93;5.33;;;15.60;99.90;;;;;;5073270;28;20816;-76
2021/06/29 05:10:44;;;;;;;9.53;5.00;;;15.50;99.90;;;;;;5074702;28;20263;-74
2021/06/29 05:13:11;;;;;;;13.00;5.30;;;15.50;99.90;;;;;;5073127;28;20578;-72
2021/06/29 05:15:39;;;;;;;8.90;4.80;;;15.30;99.90;;;;;;5074757;28;20190;-71
2021/06/29 05:18:06;;;;;;;15.90;4.87;;;15.30;99.90;;;;;;5068702;28;20641;-76
2021/06/29 05:20:33;;;;;;;11.77;4.60;;;15.30;99.90;;;;;;5071920;28;20630;-70
2021/06/29 05:23:01;;;;;;;10.53;5.53;;;15.20;99.90;;;;;;5066539;28;20193;-68
2021/06/29 05:25:29;;;;;;;13.03;5.50;;;15.30;99.90;;;;;;5073260;28;20218;-71
2021/06/29 05:27:56;;;;;;;10.67;4.80;;;15.30;99.90;;;;;;5074543;28;20185;-75
2021/06/29 05:30:23;;;;;;;11.27;4.90;;;15.30;99.90;;;;;;5073673;28;20186;-74
2021/06/29 05:32:51;;;;;;;15.73;5.80;;;15.40;99.90;;;;;;5073313;28;20536;-72
2021/06/29 05:35:18;;;;;;;12.53;5.27;;;15.40;99.90;;;;;;5073896;28;20195;-72
2021/06/29 05:37:45;;;;;;;10.20;5.13;;;15.40;99.90;;;;;;5073969;28;20541;-71
2021/06/29 05:40:13;;;;;;;11.07;5.47;;;15.40;99.90;;;;;;5073382;28;20529;-73
2021/06/29 05:42:41;;;;;;;11.57;5.07;;;15.40;99.90;;;;;;5073444;28;20699;-72
2021/06/29 05:45:12;;;;;;;11.67;4.60;;;15.40;99.90;;;;;;5068378;28;20303;-73
2021/06/29 05:47:39;;;;;;;10.80;5.57;;;15.40;99.90;;;;;;5067393;28;20189;-74
2021/06/29 05:50:10;;;;;;;13.03;5.83;;;15.30;99.90;;;;;;5072374;28;20222;-71
2021/06/29 05:52:38;;;;;;;12.70;4.27;;;15.20;99.90;;;;;;5073313;28;20188;-73
2021/06/29 05:55:07;;;;;;;12.80;4.20;;;15.20;99.90;;;;;;5073253;28;20229;-73
2021/06/29 05:57:38;;;;;;;5.00;3.30;;;15.20;99.90;;;;;;5073263;28;20179;-71
2021/06/29 06:00:11;;;;;;;7.23;2.73;;;15.20;99.90;;;;;;5073160;28;20219;-72
2021/06/29 06:02:39;;;;;;;4.00;2.20;;;15.10;99.90;;;;;;5066774;28;20248;-73
2021/06/29 06:05:09;;;;;;;6.70;2.70;;;15.10;99.90;;;;;;5066028;28;20599;-73
2021/06/29 06:07:37;;;;;;;8.93;2.57;;;15.10;99.90;;;;;;5073698;28;20650;-74
2021/06/29 06:10:07;;;;;;;6.50;2.50;;;15.00;99.90;;;;;;5073102;28;20663;-72
2021/06/29 06:12:34;;;;;;;2.43;1.90;;;15.00;99.90;;;;;;5073213;28;20536;-74
2021/06/29 06:15:02;;;;;;;7.50;2.40;;;15.00;99.90;;;;;;5073664;28;20183;-71
2021/06/29 06:17:30;;;;;;;6.67;3.10;;;15.00;99.90;;;;;;5072616;28;20527;-70
2021/06/29 06:19:58;;;;;;;5.70;2.70;;;15.00;99.90;;;;;;5072797;28;20201;-71
2021/06/29 06:22:25;;;;;;;9.17;3.63;;;15.00;99.90;;;;;;5073160;28;20197;-71
2021/06/29 06:24:53;;;;;;;8.93;3.07;;;15.00;99.90;;;;;;5073055;28;20246;-71
2021/06/29 06:27:20;;;;;;;13.67;3.70;;;15.00;99.90;;;;;;5072642;28;20217;-70
2021/06/29 06:29:49;;;;;;;7.77;3.33;;;15.10;99.90;;;;;;5053354;28;20551;-71
2021/06/29 06:32:17;;;;;;;8.40;3.37;;;15.10;99.90;;;;;;5064530;28;20236;-71
2021/06/29 06:34:44;;;;;;;9.33;3.40;;;15.00;99.90;;;;;;5072696;28;20652;-70
2021/06/29 06:37:11;;;;;;;10.57;3.93;;;14.90;99.90;;;;;;5072996;28;20188;-71
2021/06/29 06:39:39;;;;;;;8.67;3.63;;;14.80;99.90;;;;;;5073130;28;20637;-69
2021/06/29 06:42:07;;;;;;;10.87;3.83;;;14.70;99.90;;;;;;5071735;28;20190;-69
2021/06/29 06:44:34;;;;;;;7.70;3.23;;;14.70;99.90;;;;;;5070752;28;20199;-69
2021/06/29 06:47:01;;;;;;;12.60;3.80;;;14.70;99.90;;;;;;5072291;28;20593;-69
2021/06/29 06:49:29;;;;;;;8.43;3.20;;;14.70;99.90;;;;;;5070070;28;20266;-69
2021/06/29 06:51:56;;;;;;;5.00;2.90;;;14.70;99.90;;;;;;5073009;28;20159;-69
2021/06/29 06:54:23;;;;;;;11.40;3.03;;;14.70;99.90;;;;;;5072314;28;20229;-70
2021/06/29 06:56:52;;;;;;;12.37;3.27;;;14.60;99.90;;;;;;5071544;28;20634;-70
2021/06/29 06:59:20;;;;;;;7.57;3.33;;;14.60;99.90;;;;;;5072262;28;20250;-73
2021/06/29 07:01:48;;;;;;;9.57;3.13;;;14.60;99.90;;;;;;5060919;28;20615;-70
2021/06/29 07:04:17;;;;;;;13.27;3.63;;;14.60;99.90;;;;;;5068922;28;20287;-69
2021/06/29 07:06:45;;;;;;;11.43;3.10;;;14.60;99.90;;;;;;5072403;28;20604;-70
2021/06/29 07:09:12;;;;;;;16.70;3.77;;;14.50;99.90;;;;;;5070718;28;20176;-71
2021/06/29 07:11:40;;;;;;;14.73;3.63;;;14.60;99.90;;;;;;5072009;28;20258;-70
2021/06/29 07:14:07;;;;;;;9.83;3.10;;;14.60;99.90;;;;;;5070135;28;20231;-69
2021/06/29 07:16:34;;;;;;;13.70;3.60;;;14.50;99.90;;;;;;5062342;28;20208;-70
2021/06/29 07:19:02;;;;;;;11.90;3.27;;;14.50;99.90;;;;;;5071924;28;20175;-70
2021/06/29 07:21:30;;;;;;;13.17;3.43;;;14.50;99.90;;;;;;5066540;28;20742;-69
2021/06/29 07:23:58;;;;;;;10.13;2.93;;;14.40;99.90;;;;;;5057948;28;20591;-69
2021/06/29 07:26:25;;;;;;;12.73;4.07;;;14.40;99.90;;;;;;5071629;28;20187;-69
2021/06/29 07:28:53;;;;;;;6.93;3.20;;;14.50;99.90;;;;;;5072457;28;20230;-70
2021/06/29 07:31:21;;;;;;;12.10;4.83;;;14.40;99.90;;;;;;5072282;28;20183;-70
2021/06/29 07:33:50;;;;;;;15.10;6.90;;;14.40;99.90;;;;;;5068203;28;20576;-70
2021/06/29 07:36:19;;;;;;;10.17;4.60;;;14.40;99.90;;;;;;5069887;28;20186;-71
2021/06/29 07:38:47;;;;;;;15.30;4.70;;;14.50;99.90;;;;;;5070382;28;20590;-71
2021/06/29 07:41:15;;;;;;;12.97;4.43;;;14.40;99.90;;;;;;5071187;28;20660;-69
2021/06/29 07:43:43;;;;;;;10.67;3.70;;;14.40;99.90;;;;;;5071820;28;20262;-69
2021/06/29 07:46:10;;;;;;;10.50;3.67;;;14.40;99.90;;;;;;5071878;28;20175;-70
2021/06/29 07:48:38;;;;;;;13.53;4.03;;;14.40;99.90;;;;;;5070741;28;20678;-70
2021/06/29 07:51:08;;;;;;;11.53;3.37;;;14.40;99.90;;;;;;5066991;28;20171;-70
2021/06/29 07:53:36;;;;;;;10.30;3.60;;;14.40;99.90;;;;;;5071500;28;20190;-70
2021/06/29 07:56:05;;;;;;;11.87;4.13;;;14.30;99.90;;;;;;5071861;28;20183;-71
2021/06/29 07:58:32;;;;;;;10.10;4.07;;;14.40;99.90;;;;;;5071546;28;20211;-70
2021/06/29 08:00:59;;;;;;;10.23;4.30;;;14.40;99.90;;;;;;5071901;28;20606;-74
2021/06/29 08:03:27;;;;;;;12.43;4.80;;;14.40;99.90;;;;;;5064302;28;20831;-72
2021/06/29 08:05:56;;;;;;;12.10;5.93;;;14.40;99.90;;;;;;5067692;28;20225;-70
2021/06/29 08:08:23;;;;;;;13.47;6.33;;;14.30;99.90;;;;;;5071919;28;20829;-70
2021/06/29 08:10:51;;;;;;;15.13;4.90;;;14.40;99.90;;;;;;5070277;28;20233;-72
2021/06/29 08:13:18;;;;;;;13.03;4.50;;;14.30;99.90;;;;;;5071828;28;20172;-74
2021/06/29 08:15:45;;;;;;;9.13;3.80;;;14.30;99.90;;;;;;5069937;28;20555;-68
2021/06/29 08:18:16;;;;;;;7.33;3.40;;;14.30;99.90;;;;;;5069583;28;20197;-71
2021/06/29 08:20:44;;;;;;;14.77;3.70;;;14.30;99.90;;;;;;5069922;28;20812;-70
2021/06/29 08:23:11;;;;;;;16.73;3.70;;;14.20;99.90;;;;;;5074895;28;20198;-70
2021/06/29 08:25:39;;;;;;;13.83;4.63;;;14.20;99.90;;;;;;5074267;28;20203;-70
2021/06/29 08:28:07;;;;;;;15.20;4.63;;;14.20;99.90;;;;;;5075596;28;20179;-70
2021/06/29 08:30:34;;;;;;;13.80;4.40;;;14.20;99.90;;;;;;5074072;28;20285;-72
2021/06/29 08:33:02;;;;;;;17.17;3.97;;;14.20;99.90;;;;;;5074904;28;20241;-71
2021/06/29 08:35:29;;;;;;;9.00;3.47;;;14.20;99.90;;;;;;5067378;28;20612;-71
2021/06/29 08:37:57;;;;;;;16.30;5.77;;;14.20;99.90;;;;;;5065706;28;20666;-70
2021/06/29 08:40:24;;;;;;;17.13;7.60;;;14.20;99.90;;;;;;5071038;28;20172;-70
2021/06/29 08:42:51;;;;;;;19.47;4.60;;;14.20;99.90;;;;;;5069281;28;20186;-71
2021/06/29 08:45:19;;;;;;;14.50;6.87;;;14.20;99.90;;;;;;5072557;28;20238;-70
2021/06/29 08:47:47;;;;;;;10.67;5.20;;;14.10;99.90;;;;;;5073169;28;20182;-71
2021/06/29 08:50:16;;;;;;;13.13;4.40;;;14.20;99.90;;;;;;5073742;28;20626;-72
2021/06/29 08:52:43;;;;;;;13.30;3.83;;;14.20;99.90;;;;;;5074227;28;20253;-72
2021/06/29 08:55:12;;;;;;;12.93;3.93;;;14.20;99.90;;;;;;5074799;28;20179;-71
2021/06/29 08:57:39;;;;;;;16.60;4.40;;;14.20;99.90;;;;;;5075036;28;20175;-72
2021/06/29 09:00:11;;;;;;;10.83;3.90;;;14.10;99.90;;;;;;5073805;28;20235;-70
2021/06/29 09:02:40;;;;;;;15.50;4.07;;;14.20;99.90;;;;;;5074447;28;20613;-70
2021/06/29 09:05:25;;;;;;;15.33;5.10;;;14.20;99.90;;;;;;5070560;28;20228;-72
2021/06/29 09:08:08;;;;;;;22.93;8.83;;;14.20;99.90;;;;;;5073951;28;20191;-72
2021/06/29 09:10:40;;;;;;;31.33;11.80;;;14.20;99.90;;;;;;5074938;28;20187;-71
2021/06/29 09:13:08;;;;;;;29.53;10.80;;;14.20;99.90;;;;;;5068786;28;20180;-70
2021/06/29 09:15:46;;;;;;;18.57;8.90;;;14.20;99.90;;;;;;5058797;28;20556;-71
2021/06/29 09:18:23;;;;;;;20.40;8.30;;;14.20;99.90;;;;;;5074587;28;20664;-70
2021/06/29 09:21:05;;;;;;;27.87;12.77;;;14.20;99.90;;;;;;5073120;28;20610;-70
2021/06/29 09:23:39;;;;;;;24.53;13.60;;;14.20;99.90;;;;;;5074547;28;20192;-70
2021/06/29 09:26:09;;;;;;;20.90;11.27;;;14.20;99.90;;;;;;5071028;28;20716;-70
2021/06/29 09:28:47;;;;;;;19.57;9.27;;;14.30;99.90;;;;;;5076492;28;20179;-70
2021/06/29 09:31:27;;;;;;;15.40;7.23;;;14.20;99.90;;;;;;5073825;28;20180;-70
2021/06/29 09:34:12;;;;;;;22.10;7.77;;;14.20;99.90;;;;;;5066631;28;20292;-70
2021/06/29 09:36:42;;;;;;;22.10;8.47;;;14.20;99.90;;;;;;5076083;28;20195;-70
2021/06/29 09:39:14;;;;;;;20.70;8.10;;;14.10;99.90;;;;;;5073673;28;20647;-71
2021/06/29 09:41:46;;;;;;;17.80;7.00;;;14.20;99.90;;;;;;5067286;28;20176;-69
2021/06/29 09:44:22;;;;;;;17.47;7.70;;;14.10;99.90;;;;;;5073844;28;20748;-69
2021/06/29 09:46:50;;;;;;;13.27;5.77;;;14.10;99.90;;;;;;5077955;28;20632;-70
2021/06/29 09:49:28;;;;;;;12.50;4.73;;;14.00;99.90;;;;;;5078273;28;20184;-69
2021/06/29 09:52:49;;;;;;;15.60;4.97;;;14.00;99.90;;;;;;5082897;28;20175;-69
2021/06/29 09:58:40;;;;;;;12.17;4.63;;;14.00;99.90;;;;;;5051886;28;20191;-70
2021/06/29 10:01:08;;;;;;;16.00;5.20;;;14.00;99.90;;;;;;5057089;28;20763;-70
2021/06/29 10:07:23;;;;;;;17.83;5.87;;;14.00;99.90;;;;;;4997770;28;20613;-72
2021/06/29 10:10:43;;;;;;;14.80;5.93;;;14.00;99.90;;;;;;5033263;28;20184;-71
2021/06/29 10:17:09;;;;;;;14.47;5.67;;;13.90;99.90;;;;;;5042124;28;20190;-72
2021/06/29 10:21:15;;;;;;;22.40;7.13;;;13.90;99.90;;;;;;4998348;28;20248;-71
2021/06/29 10:26:58;;;;;;;17.83;6.57;;;14.00;99.90;;;;;;5051286;28;20221;-71
2021/06/29 10:29:44;;;;;;;14.77;7.27;;;14.00;99.90;;;;;;5046626;28;20219;-71
2021/06/29 10:32:14;;;;;;;15.00;7.07;;;14.00;99.90;;;;;;5051437;28;20203;-71
2021/06/29 10:34:51;;;;;;;14.63;7.17;;;14.10;99.90;;;;;;5073137;28;20269;-71
2021/06/29 10:37:25;;;;;;;17.07;8.07;;;14.00;99.90;;;;;;5073269;28;20248;-71
2021/06/29 10:40:26;;;;;;;16.33;7.80;;;14.00;99.90;;;;;;5072806;28;20282;-72
2021/06/29 10:43:14;;;;;;;20.70;7.80;;;14.00;99.90;;;;;;5059676;28;20634;-72
2021/06/29 10:45:52;;;;;;;13.17;7.37;;;14.10;99.90;;;;;;5090629;28;20700;-70
2021/06/29 10:48:25;;;;;;;19.67;8.20;;;14.00;99.90;;;;;;5072390;28;20176;-71
2021/06/29 10:51:13;;;;;;;17.87;8.03;;;14.00;99.90;;;;;;5073028;28;20565;-71
2021/06/29 10:53:48;;;;;;;16.40;9.10;;;14.00;99.90;;;;;;5072279;28;20545;-71
2021/06/29 10:57:07;;;;;;;15.53;8.13;;;14.00;99.90;;;;;;5072544;28;20209;-72
2021/06/29 10:59:35;;;;;;;15.87;8.77;;;14.00;99.90;;;;;;5072655;28;20223;-72
2021/06/29 11:02:48;;;;;;;20.60;9.30;;;13.90;99.90;;;;;;5072212;28;20677;-70
2021/06/29 11:05:32;;;;;;;18.77;8.43;;;13.90;99.90;;;;;;5072678;28;20225;-70
2021/06/29 11:08:25;;;;;;;13.63;8.80;;;13.90;99.90;;;;;;5072494;28;20180;-71
2021/06/29 11:11:08;;;;;;;15.20;8.73;;;13.90;99.90;;;;;;5072413;28;20237;-70
2021/06/29 11:13:49;;;;;;;14.80;8.67;;;13.90;99.90;;;;;;5071455;28;20190;-71
2021/06/29 11:16:54;;;;;;;20.73;9.93;;;13.90;99.90;;;;;;5054587;28;20531;-71
2021/06/29 11:20:03;;;;;;;17.37;9.73;;;13.80;99.90;;;;;;5071909;28;20265;-72
2021/06/29 11:23:20;;;;;;;19.40;9.27;;;13.80;99.90;;;;;;5071660;28;20232;-71
2021/06/29 11:25:53;;;;;;;20.33;10.20;;;13.70;99.90;;;;;;5072194;28;20337;-70
2021/06/29 11:28:28;;;;;;;19.87;10.77;;;13.70;99.90;;;;;;5072255;28;20209;-70
2021/06/29 11:31:25;;;;;;;20.60;11.07;;;13.70;99.90;;;;;;5071922;28;20535;-72
2021/06/29 11:34:01;;;;;;;24.07;12.47;;;13.70;99.90;;;;;;5060046;28;20210;-72
2021/06/29 11:36:37;;;;;;;20.03;12.47;;;13.70;99.90;;;;;;5053994;28;20663;-72
2021/06/29 11:39:20;;;;;;;18.70;11.67;;;13.70;99.90;;;;;;5071275;28;20191;-72
2021/06/29 11:42:12;;;;;;;23.00;13.03;;;13.60;99.90;;;;;;5062803;28;20270;-72
2021/06/29 11:44:48;;;;;;;20.30;12.50;;;13.60;99.90;;;;;;5069863;28;20218;-73
2021/06/29 11:47:23;;;;;;;22.03;12.93;;;13.60;99.90;;;;;;5063853;28;20190;-72
2021/06/29 11:49:59;;;;;;;21.53;13.73;;;13.50;99.90;;;;;;5070980;28;20184;-71
2021/06/29 11:52:36;;;;;;;21.23;13.07;;;13.60;99.90;;;;;;5071516;28;20176;-72
2021/06/29 11:55:18;;;;;;;25.07;13.10;;;13.60;99.90;;;;;;5069212;28;20217;-71
2021/06/29 11:57:52;;;;;;;27.03;13.93;;;13.60;99.90;;;;;;5071073;28;20198;-71
2021/06/29 12:00:27;;;;;;;26.63;14.20;;;13.60;99.90;;;;;;5072956;28;20268;-71
2021/06/29 12:03:06;;;;;;;18.73;12.43;;;13.60;99.90;;;;;;5075148;28;20175;-71
2021/06/29 12:05:36;;;;;;;21.23;12.33;;;13.60;99.90;;;;;;5071921;28;20228;-70
2021/06/29 12:08:06;;;;;;;26.63;15.17;;;13.70;99.90;;;;;;5074094;28;20504;-69
2021/06/29 12:10:58;;;;;;;23.47;13.87;;;13.70;99.90;;;;;;5074485;28;20191;-70
2021/06/29 12:13:26;;;;;;;25.30;12.87;;;13.70;99.90;;;;;;5071893;28;20515;-71
2021/06/29 12:15:59;;;;;;;14.30;8.70;;;13.70;99.90;;;;;;5071685;28;20191;-69
2021/06/29 12:18:28;;;;;;;18.67;9.87;;;13.70;99.90;;;;;;5069479;28;20657;-69
2021/06/29 12:21:01;;;;;;;19.48;12.25;;;13.70;99.90;;;;;;5073600;28;20392;-70
2021/06/29 12:23:37;;;;;;;21.13;11.30;;;13.70;99.90;;;;;;5070065;28;20191;-70
2021/06/29 12:26:07;;;;;;;25.10;11.87;;;13.70;99.90;;;;;;5070763;28;20215;-71
2021/06/29 12:28:38;;;;;;;27.27;12.57;;;13.80;99.90;;;;;;5074746;28;20211;-71
2021/06/29 12:31:10;;;;;;;24.93;13.67;;;13.70;99.90;;;;;;5074031;28;20180;-70
2021/06/29 12:33:43;;;;;;;25.33;13.13;;;13.70;99.90;;;;;;5069934;28;20646;-70
2021/06/29 12:36:23;;;;;;;25.97;12.87;;;13.70;99.90;;;;;;5070254;28;20207;-70
2021/06/29 12:38:54;;;;;;;22.30;12.93;;;13.70;99.90;;;;;;5073384;28;20175;-70
2021/06/29 12:41:26;;;;;;;23.53;11.43;;;13.70;99.90;;;;;;5072352;28;20229;-71
2021/06/29 12:43:58;;;;;;;19.67;10.93;;;13.60;99.90;;;;;;5068216;28;20254;-70
2021/06/29 12:46:34;;;;;;;22.70;11.07;;;13.60;99.90;;;;;;5071169;28;20241;-71
2021/06/29 12:49:15;;;;;;;17.47;9.33;;;13.60;99.90;;;;;;5073873;28;20191;-72
2021/06/29 12:51:55;;;;;;;23.37;10.70;;;13.70;99.90;;;;;;5074334;28;20669;-71
2021/06/29 12:54:24;;;;;;;17.73;10.53;;;13.60;99.90;;;;;;5068662;28;20191;-70
2021/06/29 12:56:57;;;;;;;16.87;10.07;;;13.60;99.90;;;;;;5073034;28;20190;-71
2021/06/29 12:59:40;;;;;;;17.20;10.23;;;13.60;99.90;;;;;;5074147;28;20223;-72
2021/06/29 13:02:14;;;;;;;20.23;11.20;;;13.60;99.90;;;;;;5068627;28;20650;-71
2021/06/29 13:04:44;;;;;;;22.77;12.60;;;13.60;99.90;;;;;;5074087;28;20294;-70
2021/06/29 13:07:13;;;;;;;25.87;12.00;;;13.60;99.90;;;;;;5064617;28;20184;-71
2021/06/29 13:09:42;;;;;;;16.17;10.60;;;13.60;99.90;;;;;;5068952;28;20210;-72
2021/06/29 13:12:22;;;;;;;18.43;9.73;;;13.50;99.90;;;;;;5074803;28;20186;-71
2021/06/29 13:14:59;;;;;;;24.77;11.70;;;13.50;99.90;;;;;;5074541;28;20245;-72
2021/06/29 13:17:26;;;;;;;24.30;10.80;;;13.50;99.90;;;;;;5072008;28;20197;-72
2021/06/29 13:20:13;;;;;;;24.13;10.63;;;13.40;99.90;;;;;;5074749;28;20207;-71